Bookmark and Share
Track history (hours):
 

New Century

Last reported at 2014-Apr-14 21:34 UTC. Time now 2014-Apr-23 07:14 UTC.
Position N 01°12' E 103°33'.
Warning: this ship's position is 8 days out of date.

Length 228 m; draft 8.2 m.

Type: Tanker. MMSI: 538002085.

NotesDate/timePositionNaut miles runAvg speedWind from/ knotsBaromVisibWave heightAir tempDewpointWater temp
2014-Apr-14 21:34N 01°12' E 103°33'1212.4
2014-Apr-14 20:34N 01°09' E 103°45'1010.0
2014-Apr-14 19:32N 01°13' E 103°54'11 0.5
2014-Apr-13 22:27N 01°17' E 103°44'0 0.0
2014-Apr-13 17:15N 01°17' E 103°44'0 0.0
2014-Apr-13 12:27N 01°17' E 103°44'0 0.0
2014-Apr-13 11:27N 01°17' E 103°44'0 0.0
2014-Apr-13 06:21N 01°17' E 103°44'0 0.0
2014-Apr-13 01:33N 01°17' E 103°44'0 0.0
2014-Apr-12 20:26N 01°17' E 103°44'1 1.0
2014-Apr-12 19:30N 01°17' E 103°44'6 6.3
2014-Apr-12 18:33N 01°13' E 103°49'0 0.1
2014-Apr-12 17:22N 01°13' E 103°49'0 0.0
2014-Apr-12 14:10N 01°13' E 103°49'0 0.1
2014-Apr-12 13:07N 01°13' E 103°49'0 0.1
2014-Apr-12 12:07N 01°13' E 103°49'0 0.1
2014-Apr-12 11:31N 01°13' E 103°49'0 0.1
2014-Apr-12 10:28N 01°13' E 103°49'0 0.1
2014-Apr-12 09:19N 01°13' E 103°49'0 0.1
2014-Apr-12 08:28N 01°13' E 103°49'0 0.1
2014-Apr-12 07:28N 01°13' E 103°49'0 0.0
2014-Apr-12 06:22N 01°13' E 103°49'0 0.0
2014-Apr-12 05:07N 01°13' E 103°49'0 0.0
2014-Apr-12 04:10N 01°13' E 103°49'0 0.0
2014-Apr-12 03:31N 01°13' E 103°49'0 0.0
2014-Apr-12 02:28N 01°13' E 103°49'0 0.1
2014-Apr-12 01:28N 01°13' E 103°49'0 0.0
2014-Apr-12 00:25N 01°13' E 103°49'0 0.1
2014-Apr-11 23:31N 01°13' E 103°49'0 0.2
2014-Apr-11 22:18N 01°13' E 103°49'0 0.1
2014-Apr-11 21:27N 01°13' E 103°49'0 0.0
2014-Apr-11 20:33N 01°13' E 103°49'0 0.1
2014-Apr-11 19:27N 01°13' E 103°49'0 0.0
2014-Apr-11 18:33N 01°13' E 103°49'0 0.1
2014-Apr-11 17:33N 01°13' E 103°49'0 0.0
2014-Apr-11 16:33N 01°13' E 103°49'0 0.1
2014-Apr-11 14:18N 01°13' E 103°49'0 0.1
2014-Apr-11 13:06N 01°13' E 103°49'0 0.0
2014-Apr-11 11:33N 01°13' E 103°49'0 0.0
2014-Apr-11 10:33N 01°13' E 103°49'0 0.2
2014-Apr-11 09:21N 01°13' E 103°49'0 0.3
2014-Apr-11 08:30N 01°13' E 103°49'0 0.0
2014-Apr-11 07:33N 01°13' E 103°49'0 0.0
2014-Apr-11 06:33N 01°13' E 103°49'0 0.0
2014-Apr-11 05:33N 01°13' E 103°49'0 0.0
2014-Apr-11 04:30N 01°13' E 103°49'0 0.0
2014-Apr-11 03:33N 01°13' E 103°49'0 0.1
2014-Apr-11 02:33N 01°13' E 103°49'0 0.1
2014-Apr-11 01:33N 01°13' E 103°49'0 0.1
2014-Apr-11 00:21N 01°14' E 103°49'0 0.0
2014-Apr-10 22:33N 01°13' E 103°49'0 0.0
2014-Apr-10 21:33N 01°13' E 103°49'0 0.0
2014-Apr-10 20:24N 01°13' E 103°49'0 0.0
2014-Apr-10 19:29N 01°13' E 103°49'0 0.1
2014-Apr-10 18:29N 01°13' E 103°49'0 0.1
2014-Apr-10 17:26N 01°13' E 103°49'0 0.0
2014-Apr-10 16:32N 01°13' E 103°49'0 0.0
2014-Apr-10 15:29N 01°13' E 103°49'0 0.1
2014-Apr-10 14:29N 01°13' E 103°49'0 0.2
2014-Apr-10 13:32N 01°14' E 103°49'0 0.2
2014-Apr-10 12:23N 01°13' E 103°49'0 0.2
2014-Apr-10 11:32N 01°14' E 103°49'0 0.1
2014-Apr-10 10:32N 01°13' E 103°49'0 0.0
2014-Apr-10 09:32N 01°13' E 103°49'0 0.2
2014-Apr-10 08:33N 01°13' E 103°49'4 3.7
2014-Apr-10 07:33N 01°15' E 103°46'6 6.2
2014-Apr-10 06:33N 01°15' E 103°39'4 3.6
2014-Apr-10 05:33N 01°18' E 103°42'0 0.1
2014-Apr-10 04:32N 01°18' E 103°42'0 0.0
2014-Apr-10 03:26N 01°18' E 103°42'0 0.0
2014-Apr-10 02:32N 01°18' E 103°42'0 0.0
2014-Apr-10 01:32N 01°18' E 103°42'0 0.0
2014-Apr-10 00:32N 01°18' E 103°42'0 0.0
2014-Apr-09 23:32N 01°18' E 103°42'0 0.0
2014-Apr-09 22:32N 01°18' E 103°42'0 0.0
2014-Apr-09 21:32N 01°18' E 103°42'0 0.0
2014-Apr-09 20:32N 01°18' E 103°42'0 0.0
2014-Apr-09 19:29N 01°18' E 103°42'0 0.0
2014-Apr-09 18:32N 01°18' E 103°42'0 0.0
2014-Apr-09 17:32N 01°18' E 103°42'0 0.0
2014-Apr-09 16:26N 01°18' E 103°42'0 0.0
2014-Apr-09 15:32N 01°18' E 103°42'0 0.0
2014-Apr-09 14:32N 01°18' E 103°42'0 0.0
2014-Apr-09 13:26N 01°18' E 103°42'0 0.0
2014-Apr-09 12:29N 01°18' E 103°42'0 0.0
2014-Apr-09 11:32N 01°18' E 103°42'0 0.0
2014-Apr-09 10:29N 01°18' E 103°42'0 0.0
2014-Apr-09 09:32N 01°18' E 103°42'0 0.0
2014-Apr-09 08:32N 01°18' E 103°42'0 0.0
2014-Apr-09 07:32N 01°18' E 103°42'0 0.0
2014-Apr-09 06:32N 01°18' E 103°42'0 0.0
2014-Apr-09 05:29N 01°18' E 103°42'0 0.0
2014-Apr-09 04:32N 01°18' E 103°42'0 0.0
2014-Apr-09 03:32N 01°18' E 103°42'0 0.0
2014-Apr-09 02:32N 01°18' E 103°42'0 0.0
2014-Apr-09 01:32N 01°18' E 103°42'0 0.0
2014-Apr-09 00:29N 01°18' E 103°42'0 0.0
2014-Apr-08 23:32N 01°18' E 103°42'0 0.0
2014-Apr-08 22:32N 01°18' E 103°42'0 0.0
2014-Apr-08 21:32N 01°18' E 103°42'0 0.0
2014-Apr-08 20:31N 01°18' E 103°42'0 0.0
2014-Apr-08 19:31N 01°18' E 103°42'0 0.0
2014-Apr-08 18:31N 01°18' E 103°42'0 0.0
2014-Apr-08 17:28N 01°18' E 103°42'0 0.0
2014-Apr-08 16:31N 01°18' E 103°42'0 0.0
2014-Apr-08 15:31N 01°18' E 103°42'0 0.0
2014-Apr-08 14:31N 01°18' E 103°42'0 0.0
2014-Apr-08 13:28N 01°18' E 103°42'0 0.0
2014-Apr-08 12:31N 01°18' E 103°42'0 0.0
2014-Apr-08 11:31N 01°18' E 103°42'0 0.0
2014-Apr-08 10:31N 01°18' E 103°42'0 0.0
2014-Apr-08 09:31N 01°18' E 103°42'0 0.0
2014-Apr-08 08:28N 01°18' E 103°42'0 0.0
2014-Apr-08 07:31N 01°18' E 103°42'0 0.0
2014-Apr-08 06:31N 01°18' E 103°42'0 0.0
2014-Apr-08 05:31N 01°18' E 103°42'0 0.0
2014-Apr-08 04:31N 01°18' E 103°42'3 3.5
2014-Apr-08 03:33N 01°15' E 103°39'8 7.9
2014-Apr-08 02:33N 01°15' E 103°47'3 2.4
2014-Apr-08 01:31N 01°13' E 103°49'0 0.1
2014-Apr-08 00:25N 01°13' E 103°49'0 0.1
2014-Apr-07 23:28N 01°13' E 103°49'0 0.1
2014-Apr-07 22:19N 01°13' E 103°49'0 0.0
2014-Apr-07 21:22N 01°13' E 103°49'0 0.1
2014-Apr-07 20:31N 01°13' E 103°49'0 0.1
2014-Apr-07 17:22N 01°13' E 103°49'0 0.1
2014-Apr-07 16:33N 01°14' E 103°49'0 0.1
2014-Apr-07 15:27N 01°13' E 103°49'0 0.0
2014-Apr-07 14:30N 01°13' E 103°49'0 0.0
2014-Apr-07 13:27N 01°13' E 103°49'0 0.0
2014-Apr-07 12:30N 01°13' E 103°49'0 0.0
2014-Apr-07 11:24N 01°13' E 103°49'0 0.1
2014-Apr-07 10:33N 01°14' E 103°49'0 0.0
2014-Apr-07 09:33N 01°14' E 103°49'0 0.0
2014-Apr-07 08:33N 01°14' E 103°49'0 0.2
2014-Apr-07 07:33N 01°13' E 103°49'7 7.0
2014-Apr-07 06:33N 01°15' E 103°56'  

Dump ship's entire track history

sailing weather and tide predictions

New Century — V7GF8 — position and weather